createdAt,value
2023-05-05T00:01:16.545Z,10.32
2023-05-05T00:03:43.074Z,10.36
2023-05-05T00:06:09.645Z,10.38
2023-05-05T00:08:36.351Z,10.33
2023-05-05T00:11:03.053Z,10.33
2023-05-05T00:13:29.656Z,10.29
2023-05-05T00:15:56.131Z,10.24
2023-05-05T00:18:22.718Z,10.23
2023-05-05T00:20:49.574Z,10.13
2023-05-05T00:23:16.862Z,10.11
2023-05-05T00:25:43.316Z,10.16
2023-05-05T00:28:09.912Z,10.15
2023-05-05T00:30:37.451Z,10.17
2023-05-05T00:33:04.115Z,10.15
2023-05-05T00:35:30.832Z,10.10
2023-05-05T00:37:57.372Z,10.09
2023-05-05T00:40:25.202Z,10.12
2023-05-05T00:42:51.696Z,10.02
2023-05-05T00:45:19.299Z,9.95
2023-05-05T00:47:53.525Z,9.94
2023-05-05T00:50:26.146Z,9.92
2023-05-05T00:52:55.390Z,9.83
2023-05-05T00:55:22.163Z,9.77
2023-05-05T00:57:49.441Z,9.76
2023-05-05T01:00:16.906Z,9.66
2023-05-05T01:02:44.625Z,9.69
2023-05-05T01:05:13.243Z,9.80
2023-05-05T01:07:50.681Z,9.83
2023-05-05T01:10:38.891Z,9.84
2023-05-05T01:13:05.322Z,9.84
2023-05-05T01:15:37.702Z,9.89
2023-05-05T01:18:04.123Z,9.79
2023-05-05T01:20:40.305Z,9.79
2023-05-05T01:27:11.817Z,9.80
2023-05-05T01:29:49.893Z,9.80
2023-05-05T01:32:21.965Z,9.78
2023-05-05T01:34:53.881Z,9.76
2023-05-05T01:37:30.091Z,9.71
2023-05-05T01:40:01.964Z,9.71
2023-05-05T01:42:30.598Z,9.76
2023-05-05T01:44:58.794Z,9.77
2023-05-05T01:47:27.776Z,9.78
2023-05-05T01:49:54.556Z,9.79
2023-05-05T01:52:23.330Z,9.73
2023-05-05T01:54:51.331Z,9.78
2023-05-05T01:57:21.054Z,9.78
2023-05-05T01:59:49.477Z,9.74
2023-05-05T02:02:16.532Z,9.69
2023-05-05T02:04:44.919Z,9.68
2023-05-05T02:07:13.202Z,9.67
2023-05-05T02:09:42.273Z,9.62
2023-05-05T02:12:10.195Z,9.58
2023-05-05T02:14:38.685Z,9.59
2023-05-05T02:17:05.124Z,9.58
2023-05-05T02:19:39.766Z,9.59
2023-05-05T02:22:06.487Z,9.56
2023-05-05T02:24:33.367Z,9.56
2023-05-05T02:27:02.550Z,9.59
2023-05-05T02:29:52.008Z,9.59
2023-05-05T02:32:23.754Z,9.44
2023-05-05T02:34:51.771Z,9.51
2023-05-05T02:37:23.212Z,9.46
2023-05-05T02:40:02.262Z,9.38
2023-05-05T02:42:32.143Z,9.34
2023-05-05T02:45:01.861Z,9.32
2023-05-05T02:47:36.206Z,9.21
2023-05-05T02:50:05.161Z,9.20
2023-05-05T02:52:32.088Z,9.15
2023-05-05T02:55:03.077Z,9.10
2023-05-05T02:57:44.480Z,9.07
2023-05-05T03:00:16.608Z,9.04
2023-05-05T03:03:06.816Z,9.11
2023-05-05T03:05:55.781Z,9.09
2023-05-05T03:08:31.516Z,9.05
2023-05-05T03:11:24.199Z,9.02
2023-05-05T03:13:56.318Z,8.98
2023-05-05T03:16:25.286Z,8.93
2023-05-05T03:18:52.484Z,8.89
2023-05-05T03:21:19.061Z,8.95
2023-05-05T03:23:45.698Z,8.99
2023-05-05T03:26:12.071Z,8.96
2023-05-05T03:28:38.486Z,8.99
2023-05-05T03:31:05.048Z,8.93
2023-05-05T03:33:31.732Z,8.89
2023-05-05T03:35:58.216Z,8.85
2023-05-05T03:38:24.612Z,8.76
2023-05-05T03:40:51.190Z,8.75
2023-05-05T03:43:17.725Z,8.74
2023-05-05T03:45:44.217Z,8.77
2023-05-05T03:48:10.732Z,8.69
2023-05-05T03:50:37.692Z,8.76
2023-05-05T03:53:04.221Z,8.85
2023-05-05T03:55:30.625Z,8.87
2023-05-05T03:57:57.329Z,8.81
2023-05-05T04:00:23.737Z,8.73
2023-05-05T04:02:50.391Z,8.78
2023-05-05T04:05:17.326Z,8.76
2023-05-05T04:07:43.765Z,8.64
2023-05-05T04:10:10.553Z,8.67
2023-05-05T04:12:37.142Z,8.66
2023-05-05T04:15:06.135Z,8.68
2023-05-05T04:17:32.617Z,8.72
2023-05-05T04:19:59.093Z,8.76
2023-05-05T04:22:25.719Z,8.81
2023-05-05T04:24:52.313Z,8.80
2023-05-05T04:27:18.922Z,8.86
2023-05-05T04:29:45.327Z,8.84
2023-05-05T04:32:12.019Z,8.89
2023-05-05T04:34:38.572Z,8.95
2023-05-05T04:37:05.139Z,9.04
2023-05-05T04:39:31.545Z,9.13
2023-05-05T04:41:57.917Z,9.11
2023-05-05T04:44:24.323Z,9.14
2023-05-05T04:46:50.848Z,9.23
2023-05-05T04:49:17.317Z,9.37
2023-05-05T04:51:43.860Z,9.48
2023-05-05T04:54:10.365Z,9.53
2023-05-05T04:56:37.080Z,9.61
2023-05-05T04:59:03.699Z,9.64
2023-05-05T05:01:30.257Z,9.67
2023-05-05T05:03:56.751Z,9.77
2023-05-05T05:06:23.516Z,9.81
2023-05-05T05:08:49.950Z,9.78
2023-05-05T05:11:16.337Z,9.87
2023-05-05T05:13:42.936Z,9.94
2023-05-05T05:16:09.390Z,10.02
2023-05-05T05:18:36.128Z,10.06
2023-05-05T05:21:03.369Z,10.24
2023-05-05T05:23:29.930Z,10.37
2023-05-05T05:25:57.100Z,10.48
2023-05-05T05:28:23.747Z,10.54
2023-05-05T05:30:50.599Z,10.60
2023-05-05T05:33:17.131Z,10.68
2023-05-05T05:35:43.567Z,10.85
2023-05-05T05:38:09.927Z,10.91
2023-05-05T05:40:36.442Z,11.00
2023-05-05T05:43:03.285Z,11.05
2023-05-05T05:45:29.727Z,11.12
2023-05-05T05:47:56.289Z,11.24
2023-05-05T05:50:22.902Z,11.29
2023-05-05T05:52:49.314Z,11.38
2023-05-05T05:55:15.821Z,11.60
2023-05-05T05:57:42.329Z,11.80
2023-05-05T06:00:09.631Z,11.93
2023-05-05T06:02:36.408Z,12.01
2023-05-05T06:05:02.921Z,12.08
2023-05-05T06:07:29.309Z,12.17
2023-05-05T06:09:56.859Z,12.33
2023-05-05T06:12:23.321Z,12.37
2023-05-05T06:14:49.773Z,12.44
2023-05-05T06:17:16.359Z,12.59
2023-05-05T06:19:43.312Z,12.72
2023-05-05T06:22:09.744Z,12.85
2023-05-05T06:24:36.239Z,13.01
2023-05-05T06:27:02.798Z,13.16
2023-05-05T06:29:29.285Z,13.27
2023-05-05T06:31:55.962Z,13.44
2023-05-05T06:34:22.459Z,13.61
2023-05-05T06:36:48.917Z,13.73
2023-05-05T06:39:16.190Z,13.90
2023-05-05T06:41:42.785Z,14.09
2023-05-05T06:44:10.613Z,14.42
2023-05-05T06:46:37.184Z,14.73
2023-05-05T06:49:03.754Z,15.17
2023-05-05T06:51:31.287Z,15.48
2023-05-05T06:53:57.737Z,15.82
2023-05-05T06:56:24.189Z,16.42
2023-05-05T06:58:50.672Z,16.71
2023-05-05T07:01:17.219Z,17.14
2023-05-05T07:03:44.376Z,17.37
2023-05-05T07:06:11.281Z,17.38
2023-05-05T07:08:37.716Z,17.54
2023-05-05T07:11:04.263Z,17.83
2023-05-05T07:13:33.520Z,18.11
2023-05-05T07:16:00.248Z,18.13
2023-05-05T07:18:26.702Z,18.53
2023-05-05T07:20:53.172Z,18.66
2023-05-05T07:23:19.712Z,19.04
2023-05-05T07:25:46.191Z,19.15
2023-05-05T07:28:12.655Z,19.57
2023-05-05T07:30:39.087Z,19.53
2023-05-05T07:33:05.563Z,19.48
2023-05-05T07:35:32.060Z,19.56
2023-05-05T07:37:58.548Z,19.78
2023-05-05T07:40:25.798Z,19.58
2023-05-05T07:42:52.405Z,19.85
2023-05-05T07:45:19.212Z,19.62
2023-05-05T07:47:45.884Z,19.73
2023-05-05T07:50:12.465Z,19.47
2023-05-05T07:52:48.331Z,19.63
2023-05-05T07:55:20.473Z,19.89
2023-05-05T07:57:47.504Z,19.96
2023-05-05T08:00:14.428Z,19.77
2023-05-05T08:02:41.421Z,20.08
2023-05-05T08:05:08.587Z,20.27
2023-05-05T08:07:36.516Z,20.35
2023-05-05T08:10:03.209Z,20.66
2023-05-05T08:12:29.597Z,20.46
2023-05-05T08:14:56.002Z,20.12
2023-05-05T08:17:22.807Z,20.13
2023-05-05T08:19:52.020Z,19.89
2023-05-05T08:22:18.632Z,19.88
2023-05-05T08:24:44.998Z,19.99
2023-05-05T08:27:11.423Z,20.29
2023-05-05T08:29:37.833Z,20.42
2023-05-05T08:32:04.359Z,20.55
2023-05-05T08:34:30.870Z,20.56
2023-05-05T08:36:57.466Z,20.94
2023-05-05T08:39:23.964Z,21.10
2023-05-05T08:41:50.462Z,21.31
2023-05-05T08:44:16.993Z,21.59
2023-05-05T08:46:44.102Z,21.68
2023-05-05T08:49:16.097Z,21.86
2023-05-05T08:51:45.576Z,21.73
2023-05-05T08:54:19.251Z,22.01
2023-05-05T08:56:47.676Z,22.49
2023-05-05T08:59:15.608Z,22.35
2023-05-05T09:01:42.868Z,22.65
2023-05-05T09:04:09.620Z,22.63
2023-05-05T09:06:37.100Z,22.96
2023-05-05T09:09:03.814Z,22.91
2023-05-05T09:11:32.523Z,23.16
2023-05-05T09:13:58.926Z,23.92
2023-05-05T09:16:26.685Z,24.25
2023-05-05T09:19:02.225Z,24.36
2023-05-05T09:21:29.274Z,24.89
2023-05-05T09:24:12.623Z,24.19
2023-05-05T09:26:42.534Z,23.47
2023-05-05T09:29:09.302Z,23.33
2023-05-05T09:31:36.996Z,23.18
2023-05-05T09:34:14.486Z,23.08
2023-05-05T09:36:47.955Z,22.98
2023-05-05T09:39:19.455Z,23.15
2023-05-05T09:41:46.916Z,23.32
2023-05-05T09:44:16.791Z,23.39
2023-05-05T09:46:51.484Z,23.84
2023-05-05T09:49:23.071Z,24.50
2023-05-05T09:51:49.572Z,24.37
2023-05-05T09:54:23.806Z,23.87
2023-05-05T09:56:51.191Z,23.52
2023-05-05T09:59:18.484Z,23.62
2023-05-05T10:01:45.030Z,24.05
2023-05-05T10:04:28.696Z,24.45
2023-05-05T10:06:56.998Z,24.72
2023-05-05T10:09:24.552Z,25.23
2023-05-05T10:11:51.948Z,24.89
2023-05-05T10:14:19.776Z,24.89
2023-05-05T10:16:51.180Z,24.39
2023-05-05T10:19:22.984Z,23.93
2023-05-05T10:21:51.805Z,23.62
2023-05-05T10:24:50.802Z,23.31
2023-05-05T10:27:19.055Z,22.90
2023-05-05T10:30:02.293Z,22.62
2023-05-05T10:32:54.342Z,22.96
2023-05-05T10:35:24.552Z,23.28
2023-05-05T10:37:52.175Z,23.48
2023-05-05T10:40:22.355Z,24.00
2023-05-05T10:42:50.785Z,24.08
2023-05-05T10:45:17.130Z,24.28
2023-05-05T10:47:46.518Z,24.40
2023-05-05T10:50:39.019Z,24.80
2023-05-05T10:53:31.684Z,24.97
2023-05-05T10:56:10.715Z,25.01
2023-05-05T10:58:55.445Z,25.16
2023-05-05T11:01:33.484Z,25.69
2023-05-05T11:04:24.716Z,25.85
2023-05-05T11:07:24.394Z,25.61
2023-05-05T11:10:05.265Z,25.66
2023-05-05T11:12:35.498Z,25.49
2023-05-05T11:15:27.828Z,25.80
2023-05-05T11:17:55.634Z,26.03
2023-05-05T11:20:37.572Z,26.06
2023-05-05T11:23:04.287Z,25.97
2023-05-05T11:25:37.561Z,25.91
2023-05-05T11:28:16.390Z,25.62
2023-05-05T11:30:54.600Z,24.78
2023-05-05T11:33:30.532Z,25.09
2023-05-05T11:36:06.124Z,25.19
2023-05-05T11:38:35.996Z,25.03
2023-05-05T11:41:10.712Z,24.69
2023-05-05T11:43:37.238Z,24.21
2023-05-05T11:46:14.293Z,24.06
2023-05-05T11:48:48.138Z,24.02
2023-05-05T11:51:16.315Z,23.75
2023-05-05T11:53:43.883Z,23.61
2023-05-05T11:56:11.856Z,23.60
2023-05-05T11:58:38.592Z,23.55
2023-05-05T12:01:06.909Z,23.65
2023-05-05T12:03:37.801Z,23.75
2023-05-05T12:06:05.515Z,23.96
2023-05-05T12:08:39.157Z,24.00
2023-05-05T12:11:10.624Z,24.17
2023-05-05T12:13:37.346Z,24.10
2023-05-05T12:16:22.360Z,24.11
2023-05-05T12:19:03.754Z,23.87
2023-05-05T12:21:30.533Z,23.69
2023-05-05T12:23:57.176Z,23.47
2023-05-05T12:26:31.870Z,23.40
2023-05-05T12:29:00.028Z,23.55
2023-05-05T12:31:36.304Z,23.98
2023-05-05T12:34:04.268Z,24.60
2023-05-05T12:36:33.542Z,25.17
2023-05-05T12:39:00.422Z,25.05
2023-05-05T12:41:27.096Z,25.17
2023-05-05T12:44:00.943Z,24.97
2023-05-05T12:46:29.691Z,24.89
2023-05-05T12:49:07.258Z,24.78
2023-05-05T12:51:37.921Z,24.83
2023-05-05T12:54:12.235Z,24.34
2023-05-05T12:56:42.902Z,24.16
2023-05-05T12:59:29.991Z,23.48
2023-05-05T13:01:58.411Z,23.53
2023-05-05T13:04:28.058Z,23.45
2023-05-05T13:07:13.765Z,23.65
2023-05-05T13:09:40.371Z,23.56
2023-05-05T13:12:08.567Z,23.28
2023-05-05T13:14:36.285Z,23.06
2023-05-05T13:17:02.795Z,23.11
2023-05-05T13:19:29.402Z,23.38
2023-05-05T13:21:57.297Z,23.40
2023-05-05T13:24:38.175Z,23.76
2023-05-05T13:27:09.277Z,23.98
2023-05-05T13:29:35.878Z,23.73
2023-05-05T13:32:02.434Z,23.45
2023-05-05T13:34:29.073Z,23.55
2023-05-05T13:36:55.770Z,23.46
2023-05-05T13:39:22.261Z,23.28
2023-05-05T13:41:48.762Z,23.05
2023-05-05T13:44:15.936Z,23.01
2023-05-05T13:46:42.930Z,23.00
2023-05-05T13:49:09.506Z,22.97
2023-05-05T13:51:36.892Z,22.97
2023-05-05T13:54:03.986Z,22.91
2023-05-05T13:56:30.712Z,22.85
2023-05-05T13:58:57.436Z,22.76
2023-05-05T14:01:24.008Z,22.80
2023-05-05T14:03:50.664Z,22.80
2023-05-05T14:06:17.163Z,22.75
2023-05-05T14:08:43.734Z,22.88
2023-05-05T14:11:10.157Z,22.90
2023-05-05T14:13:36.667Z,22.88
2023-05-05T14:16:03.192Z,22.74
2023-05-05T14:18:29.676Z,22.61
2023-05-05T14:23:22.559Z,22.46
2023-05-05T14:25:49.073Z,22.45
2023-05-05T14:28:15.493Z,22.46
2023-05-05T14:30:42.064Z,22.47
2023-05-05T14:33:08.532Z,22.49
2023-05-05T14:35:35.095Z,22.48
2023-05-05T14:38:01.572Z,22.41
2023-05-05T14:40:29.501Z,22.44
2023-05-05T14:42:56.154Z,22.28
2023-05-05T14:45:22.633Z,22.25
2023-05-05T14:47:49.160Z,22.20
2023-05-05T14:50:15.675Z,22.12
2023-05-05T14:52:44.351Z,22.24
2023-05-05T14:55:11.265Z,22.18
2023-05-05T14:57:38.631Z,22.23
2023-05-05T15:00:07.784Z,22.18
2023-05-05T15:02:34.314Z,22.12
2023-05-05T15:05:00.809Z,22.03
2023-05-05T15:07:30.987Z,21.94
2023-05-05T15:09:57.619Z,21.80
2023-05-05T15:12:25.866Z,21.75
2023-05-05T15:14:52.409Z,21.76
2023-05-05T15:17:18.841Z,21.70
2023-05-05T15:19:45.347Z,21.71
2023-05-05T15:22:11.999Z,21.71
2023-05-05T15:24:38.429Z,21.71
2023-05-05T15:27:04.843Z,21.72
2023-05-05T15:29:31.260Z,21.57
2023-05-05T15:31:57.892Z,21.50
2023-05-05T15:34:24.455Z,21.54
2023-05-05T15:36:51.525Z,21.51
2023-05-05T15:39:17.998Z,21.60
2023-05-05T15:41:44.422Z,21.62
2023-05-05T15:44:12.533Z,21.73
2023-05-05T15:46:39.726Z,21.73
2023-05-05T15:49:06.325Z,21.65
2023-05-05T15:51:32.733Z,21.59
2023-05-05T15:53:59.588Z,21.60
2023-05-05T15:56:27.491Z,21.55
2023-05-05T15:58:54.173Z,21.47
2023-05-05T16:01:20.952Z,21.41
2023-05-05T16:03:47.482Z,21.32
2023-05-05T16:06:14.004Z,21.15
2023-05-05T16:08:40.468Z,21.10
2023-05-05T16:11:07.018Z,20.99
2023-05-05T16:13:33.480Z,20.97
2023-05-05T16:15:59.959Z,20.92
2023-05-05T16:18:26.643Z,20.98
2023-05-05T16:20:53.058Z,21.01
2023-05-05T16:23:19.435Z,20.95
2023-05-05T16:25:45.916Z,20.94
2023-05-05T16:28:12.307Z,20.90
2023-05-05T16:30:39.901Z,20.96
2023-05-05T16:33:06.983Z,20.96
2023-05-05T16:35:33.606Z,20.92
2023-05-05T16:38:00.151Z,20.93
2023-05-05T16:40:26.677Z,20.85
2023-05-05T16:42:53.148Z,20.84
2023-05-05T16:45:19.541Z,20.72
2023-05-05T16:47:45.961Z,20.68
2023-05-05T16:50:12.498Z,20.73
2023-05-05T16:52:38.922Z,20.64
2023-05-05T16:55:05.565Z,20.55
2023-05-05T16:57:31.981Z,20.47
2023-05-05T16:59:58.814Z,20.39
2023-05-05T17:02:25.318Z,20.35
2023-05-05T17:04:51.749Z,20.27
2023-05-05T17:07:18.229Z,20.29
2023-05-05T17:09:44.647Z,20.16
2023-05-05T17:12:11.204Z,20.16
2023-05-05T17:14:37.618Z,20.08
2023-05-05T17:17:04.031Z,20.09
2023-05-05T17:19:30.581Z,20.13
2023-05-05T17:21:57.195Z,20.03
2023-05-05T17:24:24.104Z,20.03
2023-05-05T17:26:50.734Z,20.01
2023-05-05T17:29:21.585Z,19.96
2023-05-05T17:31:48.100Z,19.87
2023-05-05T17:34:14.539Z,19.80
2023-05-05T17:36:41.183Z,19.77
2023-05-05T17:39:07.688Z,19.80
2023-05-05T17:41:34.214Z,19.68
2023-05-05T17:44:00.814Z,19.68
2023-05-05T17:46:27.794Z,19.64
2023-05-05T17:48:54.581Z,19.54
2023-05-05T17:51:21.013Z,19.55
2023-05-05T17:53:47.400Z,19.51
2023-05-05T17:56:13.798Z,19.46
2023-05-05T17:58:40.192Z,19.41
2023-05-05T18:01:07.033Z,19.39
2023-05-05T18:03:33.876Z,19.43
2023-05-05T18:06:01.214Z,19.50
2023-05-05T18:08:27.602Z,19.56
2023-05-05T18:10:54.353Z,19.64
2023-05-05T18:13:21.454Z,19.66
2023-05-05T18:15:47.944Z,19.66
2023-05-05T18:18:14.661Z,19.54
2023-05-05T18:20:41.143Z,19.42
2023-05-05T18:23:07.789Z,19.27
2023-05-05T18:25:34.193Z,19.05
2023-05-05T18:28:00.667Z,19.02
2023-05-05T18:30:27.085Z,19.07
2023-05-05T18:32:53.554Z,18.92
2023-05-05T18:35:20.083Z,18.89
2023-05-05T18:37:46.537Z,18.98
2023-05-05T18:40:13.354Z,19.08
2023-05-05T18:42:39.763Z,19.12
2023-05-05T18:45:07.741Z,19.13
2023-05-05T18:47:36.761Z,19.15
2023-05-05T18:50:03.515Z,19.13
2023-05-05T18:52:30.049Z,19.11
2023-05-05T18:54:56.426Z,19.02
2023-05-05T18:57:22.912Z,19.01
2023-05-05T18:59:49.347Z,19.04
2023-05-05T19:02:17.126Z,19.03
2023-05-05T19:04:43.882Z,19.00
2023-05-05T19:07:14.518Z,18.99
2023-05-05T19:09:47.520Z,18.99
2023-05-05T19:12:13.956Z,18.83
2023-05-05T19:14:40.533Z,18.58
2023-05-05T19:17:06.990Z,18.54
2023-05-05T19:19:33.494Z,18.44
2023-05-05T19:22:02.177Z,18.44
2023-05-05T19:24:30.179Z,18.51
2023-05-05T19:26:56.600Z,18.48
2023-05-05T19:29:23.105Z,18.43
2023-05-05T19:31:49.597Z,18.44
2023-05-05T19:34:16.051Z,18.40
2023-05-05T19:36:42.545Z,18.25
2023-05-05T19:39:08.996Z,17.92
2023-05-05T19:41:35.559Z,17.92
2023-05-05T19:44:02.026Z,17.87
2023-05-05T19:46:28.468Z,17.74
2023-05-05T19:48:54.934Z,17.44
2023-05-05T19:51:21.474Z,17.24
2023-05-05T19:53:48.067Z,17.07
2023-05-05T19:56:14.464Z,16.94
2023-05-05T19:58:58.878Z,16.81
2023-05-05T20:01:25.771Z,16.83
2023-05-05T20:03:54.802Z,16.93
2023-05-05T20:06:21.788Z,17.02
2023-05-05T20:08:48.309Z,16.94
2023-05-05T20:11:19.607Z,16.92
2023-05-05T20:13:46.050Z,16.87
2023-05-05T20:16:12.734Z,16.81
2023-05-05T20:18:40.172Z,16.35
2023-05-05T20:21:06.925Z,16.45
2023-05-05T20:23:33.648Z,16.47
2023-05-05T20:26:00.674Z,16.56
2023-05-05T20:28:27.291Z,16.52
2023-05-05T20:30:54.799Z,16.54
2023-05-05T20:33:21.337Z,16.56
2023-05-05T20:35:47.802Z,16.52
2023-05-05T20:38:14.234Z,16.40
2023-05-05T20:40:41.448Z,16.34
2023-05-05T20:43:07.956Z,16.17
2023-05-05T20:45:34.830Z,15.92
2023-05-05T20:48:01.695Z,16.04
2023-05-05T20:50:28.202Z,16.10
2023-05-05T20:52:55.020Z,16.20
2023-05-05T20:55:21.682Z,16.14
2023-05-05T20:57:48.110Z,16.19
2023-05-05T21:00:14.979Z,15.95
2023-05-05T21:02:42.170Z,15.79
2023-05-05T21:05:08.853Z,15.85
2023-05-05T21:07:35.442Z,15.85
2023-05-05T21:10:03.224Z,15.89
2023-05-05T21:12:30.404Z,15.90
2023-05-05T21:14:58.726Z,15.79
2023-05-05T21:17:26.113Z,15.81
2023-05-05T21:19:53.044Z,15.77
2023-05-05T21:22:20.426Z,15.81
2023-05-05T21:24:46.865Z,15.75
2023-05-05T21:27:13.739Z,15.75
2023-05-05T21:29:40.831Z,15.76
2023-05-05T21:32:08.733Z,15.70
2023-05-05T21:34:35.880Z,15.80
2023-05-05T21:37:02.538Z,15.71
2023-05-05T21:39:30.629Z,15.73
2023-05-05T21:41:57.109Z,15.67
2023-05-05T21:44:25.433Z,15.69
2023-05-05T21:46:55.660Z,15.70
2023-05-05T21:49:22.284Z,15.67
2023-05-05T21:51:48.850Z,15.65
2023-05-05T21:54:15.769Z,15.63
2023-05-05T21:56:42.278Z,15.61
2023-05-05T21:59:08.697Z,15.60
2023-05-05T22:01:35.162Z,15.63
2023-05-05T22:04:01.700Z,15.57
2023-05-05T22:06:28.200Z,15.54
2023-05-05T22:08:54.731Z,15.52
2023-05-05T22:11:21.478Z,15.49
2023-05-05T22:13:47.947Z,15.51
2023-05-05T22:16:18.837Z,15.51
2023-05-05T22:18:45.935Z,15.46
2023-05-05T22:21:12.357Z,15.45
2023-05-05T22:23:41.942Z,15.38
2023-05-05T22:26:08.981Z,15.41
2023-05-05T22:28:35.937Z,15.37
2023-05-05T22:31:02.586Z,15.36
2023-05-05T22:33:29.080Z,15.34
2023-05-05T22:35:55.771Z,15.28
2023-05-05T22:38:22.274Z,15.29
2023-05-05T22:40:49.595Z,15.29
2023-05-05T22:43:16.072Z,15.18
2023-05-05T22:45:43.351Z,15.12
2023-05-05T22:48:10.105Z,15.14
2023-05-05T22:50:36.836Z,15.10
2023-05-05T22:53:03.563Z,15.07
2023-05-05T22:55:30.084Z,15.02
2023-05-05T22:57:56.508Z,14.98
2023-05-05T23:00:24.348Z,14.98
2023-05-05T23:02:50.978Z,14.94
2023-05-05T23:05:17.518Z,14.79
2023-05-05T23:07:43.976Z,14.65
2023-05-05T23:10:10.742Z,14.27
2023-05-05T23:12:37.188Z,14.23
2023-05-05T23:15:04.592Z,14.24
2023-05-05T23:17:34.042Z,14.43
2023-05-05T23:20:00.599Z,14.38
2023-05-05T23:22:26.990Z,14.45
2023-05-05T23:24:53.357Z,14.46
2023-05-05T23:27:19.797Z,14.54
2023-05-05T23:29:46.220Z,14.53
2023-05-05T23:32:12.661Z,14.45
2023-05-05T23:34:39.060Z,14.53
2023-05-05T23:37:06.368Z,14.54
2023-05-05T23:39:34.404Z,14.47
2023-05-05T23:42:00.821Z,14.36
2023-05-05T23:44:27.673Z,14.30
2023-05-05T23:46:54.400Z,14.30
2023-05-05T23:49:20.886Z,14.39
2023-05-05T23:51:47.277Z,14.36
2023-05-05T23:54:13.657Z,14.46
2023-05-05T23:56:41.031Z,14.45
2023-05-05T23:59:07.465Z,14.49
